Time;durP1;ratioP1;P1;durP2;ratioP2;P2;SDS_P1;SDS_P2;PMS_P1;PMS_P2;Temp;Humidity;BMP_temperature;BMP_pressure;BME280_temperature;BME280_humidity;BME280_pressure;Samples;Min_cycle;Max_cycle;Signal;HPM_P1;HPM_P2
2021/07/08 00:00:20;;;;;;;6.43;6.10;;;20.80;99.90;;;;;;4993223;28;20184;-62
2021/07/08 00:02:47;;;;;;;6.90;6.30;;;20.80;99.90;;;;;;4994172;28;20461;-62
2021/07/08 00:05:15;;;;;;;7.43;6.67;;;20.70;99.90;;;;;;4993416;28;20432;-62
2021/07/08 00:07:41;;;;;;;6.33;5.83;;;20.70;99.90;;;;;;4982931;28;20416;-62
2021/07/08 00:10:13;;;;;;;6.77;6.37;;;20.70;99.90;;;;;;4973465;28;20415;-61
2021/07/08 00:12:39;;;;;;;6.30;5.77;;;20.70;99.90;;;;;;4974535;28;20958;-61
2021/07/08 00:15:12;;;;;;;6.73;6.23;;;20.60;99.90;;;;;;4973859;28;20404;-61
2021/07/08 00:17:42;;;;;;;6.90;6.20;;;20.60;99.90;;;;;;4974423;28;20483;-61
2021/07/08 00:20:11;;;;;;;6.80;6.30;;;20.50;99.90;;;;;;4973869;28;20439;-61
2021/07/08 00:22:37;;;;;;;6.80;6.20;;;20.50;99.90;;;;;;4985727;28;20462;-62
2021/07/08 00:25:12;;;;;;;7.03;6.63;;;20.50;99.90;;;;;;4993172;28;20419;-60
2021/07/08 00:27:39;;;;;;;7.50;6.90;;;20.50;99.90;;;;;;4993386;28;20547;-62
2021/07/08 00:30:06;;;;;;;6.83;6.30;;;20.30;99.90;;;;;;4975815;28;20415;-61
2021/07/08 00:32:32;;;;;;;6.87;6.43;;;20.10;99.90;;;;;;4993225;28;20434;-61
2021/07/08 00:34:58;;;;;;;6.50;6.10;;;19.90;99.90;;;;;;4993510;28;20403;-63
2021/07/08 00:37:24;;;;;;;6.60;6.20;;;19.80;99.90;;;;;;4992537;28;20204;-61
2021/07/08 00:39:49;;;;;;;8.63;7.37;;;19.80;99.90;;;;;;4993450;28;20183;-61
2021/07/08 00:42:15;;;;;;;7.10;6.60;;;19.70;99.90;;;;;;4991657;28;20650;-62
2021/07/08 00:44:41;;;;;;;8.00;7.40;;;19.60;99.90;;;;;;4980230;28;20244;-61
2021/07/08 00:47:07;;;;;;;9.00;6.83;;;19.50;99.90;;;;;;4973450;28;20187;-62
2021/07/08 00:49:33;;;;;;;7.40;6.70;;;19.40;99.90;;;;;;4973609;28;20184;-62
2021/07/08 00:51:59;;;;;;;7.80;7.20;;;19.40;99.90;;;;;;4974330;28;20427;-61
2021/07/08 00:54:25;;;;;;;7.40;6.83;;;19.30;99.90;;;;;;4973275;28;20408;-62
2021/07/08 00:56:51;;;;;;;8.10;6.53;;;19.30;99.90;;;;;;4973261;28;20925;-62
2021/07/08 00:59:18;;;;;;;7.93;7.07;;;19.30;99.90;;;;;;4973266;28;20452;-61
2021/07/08 01:01:44;;;;;;;7.43;6.90;;;19.30;99.90;;;;;;4973812;28;20177;-62
2021/07/08 01:04:10;;;;;;;7.57;6.70;;;19.30;99.90;;;;;;4973280;28;20412;-61
2021/07/08 01:06:43;;;;;;;7.17;6.67;;;19.30;99.90;;;;;;4980003;28;20427;-61
2021/07/08 01:09:10;;;;;;;7.23;6.63;;;19.30;99.90;;;;;;4992404;28;20406;-61
2021/07/08 01:11:36;;;;;;;6.50;6.00;;;19.30;99.90;;;;;;4993261;28;20407;-61
2021/07/08 01:14:03;;;;;;;7.57;7.00;;;19.30;99.90;;;;;;4993007;28;20409;-65
2021/07/08 01:16:29;;;;;;;7.27;6.57;;;19.40;99.90;;;;;;4993067;28;20458;-62
2021/07/08 01:18:54;;;;;;;6.83;6.27;;;19.50;99.90;;;;;;4991754;28;20411;-63
2021/07/08 01:21:21;;;;;;;6.87;6.17;;;19.50;99.90;;;;;;4993840;28;20180;-61
2021/07/08 01:23:48;;;;;;;7.00;6.40;;;19.50;99.90;;;;;;4997004;28;20179;-61
2021/07/08 01:26:13;;;;;;;7.20;6.70;;;19.60;99.90;;;;;;4996665;28;20414;-62
2021/07/08 01:28:39;;;;;;;7.57;6.87;;;19.60;99.90;;;;;;4985806;28;20426;-62
2021/07/08 01:31:08;;;;;;;7.20;6.67;;;19.50;99.90;;;;;;4976868;28;20181;-62
2021/07/08 01:33:34;;;;;;;8.43;7.83;;;19.40;99.90;;;;;;4977403;28;20188;-61
2021/07/08 01:36:00;;;;;;;6.87;6.37;;;19.40;99.90;;;;;;4977198;28;20489;-62
2021/07/08 01:38:26;;;;;;;6.90;6.40;;;19.40;99.90;;;;;;4976683;28;20422;-62
2021/07/08 01:40:52;;;;;;;11.83;7.43;;;19.40;99.90;;;;;;4977265;28;20408;-62
2021/07/08 01:43:18;;;;;;;8.43;7.60;;;19.40;99.90;;;;;;4982908;28;20421;-62
2021/07/08 01:45:44;;;;;;;8.03;7.23;;;19.40;99.90;;;;;;4996574;28;20175;-61
2021/07/08 01:48:10;;;;;;;7.50;7.00;;;19.40;99.90;;;;;;4978547;28;20175;-62
2021/07/08 01:50:37;;;;;;;7.70;7.00;;;19.40;99.90;;;;;;4978978;28;20805;-61
2021/07/08 01:53:03;;;;;;;9.40;8.37;;;19.50;99.90;;;;;;4996497;28;20411;-62
2021/07/08 01:55:28;;;;;;;7.07;6.37;;;19.50;99.90;;;;;;4995799;28;20909;-63
2021/07/08 01:57:57;;;;;;;6.60;6.00;;;19.50;99.90;;;;;;4992915;28;20463;-62
2021/07/08 02:00:24;;;;;;;7.10;6.60;;;19.40;99.90;;;;;;4976374;28;20180;-61
2021/07/08 02:02:54;;;;;;;6.87;6.47;;;19.30;99.90;;;;;;4978014;28;20498;-62
2021/07/08 02:09:19;;;;;;;7.50;6.80;;;19.20;99.90;;;;;;4976029;28;20439;-62
2021/07/08 02:11:45;;;;;;;7.73;7.10;;;19.20;99.90;;;;;;4976658;28;20416;-61
2021/07/08 02:14:11;;;;;;;8.53;6.23;;;19.20;99.90;;;;;;4959304;28;20214;-62
2021/07/08 02:16:36;;;;;;;7.60;6.47;;;19.20;99.90;;;;;;4976635;28;20455;-61
2021/07/08 02:19:07;;;;;;;6.47;6.00;;;19.20;99.90;;;;;;4959406;28;20188;-61
2021/07/08 02:21:33;;;;;;;6.93;6.40;;;19.30;99.90;;;;;;4976615;28;20403;-61
2021/07/08 02:23:59;;;;;;;8.00;7.40;;;19.20;99.90;;;;;;4976665;28;20416;-62
2021/07/08 02:26:25;;;;;;;7.20;6.70;;;19.20;99.90;;;;;;4975966;28;20420;-62
2021/07/08 02:28:51;;;;;;;6.50;6.10;;;19.10;99.90;;;;;;4986557;28;20469;-61
2021/07/08 02:31:17;;;;;;;7.10;6.60;;;19.10;99.90;;;;;;4994976;28;20659;-62
2021/07/08 02:33:43;;;;;;;6.73;6.30;;;19.10;99.90;;;;;;4994853;28;20442;-62
2021/07/08 02:36:10;;;;;;;7.10;6.47;;;19.10;99.90;;;;;;4995203;28;20463;-61
2021/07/08 02:38:36;;;;;;;7.87;7.17;;;19.10;99.90;;;;;;4995700;28;20172;-62
2021/07/08 02:41:04;;;;;;;6.40;6.00;;;19.20;99.90;;;;;;4995704;28;20891;-61
2021/07/08 02:43:30;;;;;;;8.60;7.10;;;19.20;99.90;;;;;;4994377;28;20411;-62
2021/07/08 02:45:56;;;;;;;7.50;6.90;;;19.20;99.90;;;;;;4995609;28;20477;-61
2021/07/08 02:48:22;;;;;;;6.70;6.20;;;19.10;99.90;;;;;;4994911;28;20402;-62
2021/07/08 02:50:51;;;;;;;6.70;6.20;;;19.10;99.90;;;;;;4995491;28;20502;-62
2021/07/08 02:53:17;;;;;;;8.40;7.77;;;19.10;99.90;;;;;;4994807;28;20498;-61
2021/07/08 02:55:44;;;;;;;7.70;7.10;;;19.00;99.90;;;;;;4994952;28;20400;-60
2021/07/08 02:58:10;;;;;;;7.30;6.60;;;19.00;99.90;;;;;;4976737;28;20955;-62
2021/07/08 03:00:36;;;;;;;7.50;6.90;;;19.00;99.90;;;;;;4995221;28;20505;-62
2021/07/08 03:03:03;;;;;;;8.13;7.30;;;19.00;99.90;;;;;;4995213;28;20407;-61
2021/07/08 03:05:30;;;;;;;7.10;6.60;;;19.00;99.90;;;;;;4994644;28;20419;-62
2021/07/08 03:07:57;;;;;;;8.17;7.63;;;19.10;99.90;;;;;;4994879;28;20953;-62
2021/07/08 03:10:26;;;;;;;7.17;6.70;;;19.00;99.90;;;;;;4994318;28;20447;-62
2021/07/08 03:12:52;;;;;;;8.47;7.63;;;19.00;99.90;;;;;;4995236;28;20411;-61
2021/07/08 03:15:19;;;;;;;7.77;7.23;;;19.10;99.90;;;;;;4976728;28;20431;-62
2021/07/08 03:17:45;;;;;;;7.03;6.53;;;19.10;99.90;;;;;;4975487;28;20505;-62
2021/07/08 03:20:22;;;;;;;8.30;7.70;;;19.10;99.90;;;;;;4974855;28;20419;-61
2021/07/08 03:22:49;;;;;;;8.43;7.63;;;19.00;99.90;;;;;;4975498;28;20404;-62
2021/07/08 03:25:16;;;;;;;7.93;7.30;;;19.00;99.90;;;;;;4974784;28;20415;-61
2021/07/08 03:27:43;;;;;;;7.57;7.07;;;19.00;99.90;;;;;;4975571;28;20424;-61
2021/07/08 03:30:11;;;;;;;7.73;7.13;;;19.00;99.90;;;;;;4975543;28;20550;-61
2021/07/08 03:32:38;;;;;;;8.47;7.80;;;19.00;99.90;;;;;;4975090;28;20487;-61
2021/07/08 03:35:06;;;;;;;7.17;6.60;;;19.00;99.90;;;;;;4975222;28;20409;-61
2021/07/08 03:37:32;;;;;;;7.20;6.80;;;19.00;99.90;;;;;;4974511;28;20817;-61
2021/07/08 03:39:57;;;;;;;7.90;7.30;;;18.90;99.90;;;;;;4975094;28;20416;-61
2021/07/08 03:42:23;;;;;;;8.10;7.50;;;18.90;99.90;;;;;;4974383;28;20245;-61
2021/07/08 03:44:49;;;;;;;9.40;8.90;;;19.00;99.90;;;;;;4975125;28;20203;-61
2021/07/08 03:47:15;;;;;;;8.20;7.60;;;19.00;99.90;;;;;;4974363;28;20187;-61
2021/07/08 03:49:41;;;;;;;7.40;6.80;;;19.00;99.90;;;;;;4974860;28;20404;-61
2021/07/08 03:52:07;;;;;;;7.60;7.10;;;19.00;99.90;;;;;;4974883;28;20628;-61
2021/07/08 03:54:33;;;;;;;7.67;7.10;;;18.90;99.90;;;;;;4973998;28;20184;-61
2021/07/08 03:56:58;;;;;;;7.93;7.23;;;18.70;99.90;;;;;;4974553;28;20838;-61
2021/07/08 03:59:24;;;;;;;8.17;7.57;;;18.50;99.90;;;;;;4980474;28;20271;-61
2021/07/08 04:01:50;;;;;;;8.43;7.50;;;18.40;99.90;;;;;;4994098;28;20183;-61
2021/07/08 04:04:15;;;;;;;7.90;7.40;;;18.40;99.90;;;;;;4993553;28;20172;-61
2021/07/08 04:06:41;;;;;;;7.37;6.97;;;18.40;99.90;;;;;;4994024;28;20176;-61
2021/07/08 04:09:07;;;;;;;10.27;9.67;;;18.50;99.90;;;;;;4976634;28;20172;-61
2021/07/08 04:11:33;;;;;;;8.17;7.67;;;18.50;99.90;;;;;;4993331;28;20254;-61
2021/07/08 04:13:58;;;;;;;7.07;6.57;;;18.60;99.90;;;;;;4990018;28;20194;-61
2021/07/08 04:16:24;;;;;;;7.00;6.50;;;18.60;99.90;;;;;;4973448;28;20208;-61
2021/07/08 04:18:50;;;;;;;7.17;6.67;;;18.70;99.90;;;;;;4974508;28;20288;-61
2021/07/08 04:21:16;;;;;;;7.87;7.33;;;18.70;99.90;;;;;;4973739;28;20208;-61
2021/07/08 04:23:41;;;;;;;6.80;6.37;;;18.70;99.90;;;;;;4974290;28;20168;-61
2021/07/08 04:26:07;;;;;;;7.83;7.30;;;18.80;99.90;;;;;;4974398;28;20184;-61
2021/07/08 04:28:33;;;;;;;10.33;9.60;;;18.90;99.90;;;;;;4973682;28;20196;-61
2021/07/08 04:30:59;;;;;;;6.33;5.83;;;18.90;99.90;;;;;;4992131;28;20199;-61
2021/07/08 04:33:25;;;;;;;6.37;5.93;;;18.90;99.90;;;;;;4993011;28;20238;-61
2021/07/08 04:35:51;;;;;;;10.73;9.93;;;18.90;99.90;;;;;;4976068;28;20180;-61
2021/07/08 04:38:17;;;;;;;8.67;7.97;;;19.00;99.90;;;;;;4992903;28;20824;-61
2021/07/08 04:40:44;;;;;;;7.80;7.20;;;19.00;99.90;;;;;;4993469;28;20413;-61
2021/07/08 04:43:12;;;;;;;8.77;8.27;;;18.80;99.90;;;;;;4993456;28;20497;-60
2021/07/08 04:45:38;;;;;;;6.90;6.30;;;18.60;99.90;;;;;;4978197;28;20416;-61
2021/07/08 04:48:05;;;;;;;6.83;6.20;;;18.50;99.90;;;;;;4993378;28;20473;-61
2021/07/08 04:50:33;;;;;;;6.23;5.80;;;18.50;99.90;;;;;;4992794;28;20778;-61
2021/07/08 04:52:59;;;;;;;8.23;7.73;;;18.50;99.90;;;;;;4992754;28;20414;-61
2021/07/08 04:55:25;;;;;;;8.03;7.30;;;18.60;99.90;;;;;;4982317;28;20427;-61
2021/07/08 04:57:53;;;;;;;8.37;7.77;;;18.70;99.90;;;;;;4988151;28;20227;-61
2021/07/08 05:00:21;;;;;;;9.37;8.47;;;18.80;99.90;;;;;;4989795;28;20462;-61
2021/07/08 05:02:48;;;;;;;10.20;9.60;;;18.80;99.90;;;;;;4975197;28;20399;-61
2021/07/08 05:05:15;;;;;;;9.23;8.43;;;18.90;99.90;;;;;;4987726;28;20766;-61
2021/07/08 05:07:41;;;;;;;9.10;8.50;;;19.00;99.90;;;;;;4977992;28;20454;-62
2021/07/08 05:10:10;;;;;;;8.10;7.60;;;19.00;99.90;;;;;;4991375;28;20501;-61
2021/07/08 05:12:36;;;;;;;7.13;6.63;;;19.00;99.90;;;;;;4987422;28;20411;-61
2021/07/08 05:15:02;;;;;;;8.63;7.73;;;19.10;99.90;;;;;;4992009;28;20847;-61
2021/07/08 05:17:27;;;;;;;8.97;8.47;;;19.10;99.90;;;;;;4990924;28;20294;-64
2021/07/08 05:19:53;;;;;;;7.80;7.20;;;19.20;99.90;;;;;;4993116;28;20506;-61
2021/07/08 05:22:21;;;;;;;6.93;6.50;;;19.20;99.90;;;;;;4980856;28;20231;-61
2021/07/08 05:24:48;;;;;;;8.13;7.43;;;19.40;99.90;;;;;;4973870;28;20183;-61
2021/07/08 05:27:17;;;;;;;8.57;7.73;;;19.60;99.90;;;;;;4985836;28;20431;-61
2021/07/08 05:29:44;;;;;;;6.83;6.33;;;19.80;99.90;;;;;;4976120;28;20415;-61
2021/07/08 05:32:10;;;;;;;7.40;6.80;;;20.10;99.90;;;;;;4977327;28;20820;-63
2021/07/08 05:34:36;;;;;;;5.63;5.30;;;20.30;99.90;;;;;;4973007;28;20820;-62
2021/07/08 05:37:02;;;;;;;7.00;6.50;;;20.30;99.90;;;;;;4987715;28;20458;-65
2021/07/08 05:39:28;;;;;;;8.10;7.40;;;20.30;99.90;;;;;;4992323;28;20182;-62
2021/07/08 05:41:53;;;;;;;6.47;6.07;;;20.30;99.90;;;;;;4991237;28;20418;-62
2021/07/08 05:44:19;;;;;;;7.47;6.87;;;20.20;99.90;;;;;;4990642;28;20188;-62
2021/07/08 05:46:45;;;;;;;7.43;6.00;;;20.20;99.90;;;;;;4992877;28;20218;-62
2021/07/08 05:49:10;;;;;;;5.83;5.33;;;20.10;99.90;;;;;;4992867;28;20318;-62
2021/07/08 05:51:36;;;;;;;5.87;5.47;;;20.00;99.90;;;;;;4992246;28;20183;-64
2021/07/08 05:54:02;;;;;;;10.37;9.60;;;20.00;99.90;;;;;;4983431;28;20181;-63
2021/07/08 05:56:28;;;;;;;9.33;8.53;;;19.90;99.90;;;;;;4972339;28;20228;-59
2021/07/08 05:58:54;;;;;;;9.17;7.43;;;19.90;99.90;;;;;;4973445;28;20188;-59
2021/07/08 06:01:21;;;;;;;7.57;6.77;;;19.80;99.90;;;;;;4972719;28;20415;-60
2021/07/08 06:03:47;;;;;;;8.73;8.13;;;19.80;99.90;;;;;;4974325;28;20464;-60
2021/07/08 06:06:14;;;;;;;6.87;6.37;;;19.60;99.90;;;;;;4989136;28;20426;-59
2021/07/08 06:08:40;;;;;;;7.60;6.90;;;19.70;99.90;;;;;;4993797;28;20423;-59
2021/07/08 06:11:06;;;;;;;6.50;5.90;;;19.60;99.90;;;;;;4996040;28;20419;-59
2021/07/08 06:13:31;;;;;;;6.47;5.83;;;19.60;99.90;;;;;;4995617;28;20431;-59
2021/07/08 06:15:57;;;;;;;8.30;7.80;;;19.60;99.90;;;;;;4996292;28;20512;-60
2021/07/08 06:18:23;;;;;;;7.57;6.87;;;19.50;99.90;;;;;;4995479;28;20190;-60
2021/07/08 06:20:49;;;;;;;13.90;11.60;;;19.60;99.90;;;;;;4996038;28;20172;-60
2021/07/08 06:23:16;;;;;;;11.50;9.20;;;19.60;99.90;;;;;;4995884;28;20183;-60
2021/07/08 06:25:42;;;;;;;19.97;11.80;;;19.60;99.90;;;;;;4995121;28;20438;-60
2021/07/08 06:31:48;;;;;;;8.03;7.30;;;19.60;99.90;;;;;;4995602;28;20394;-60
2021/07/08 06:34:14;;;;;;;10.23;8.93;;;19.60;99.90;;;;;;4995814;28;20751;-60
2021/07/08 06:36:39;;;;;;;9.97;8.93;;;19.60;99.90;;;;;;4994298;28;20614;-60
2021/07/08 06:39:05;;;;;;;14.00;10.07;;;19.60;99.90;;;;;;4995610;28;20190;-60
2021/07/08 06:41:32;;;;;;;10.80;8.87;;;19.60;99.90;;;;;;4997443;28;20274;-61
2021/07/08 06:43:57;;;;;;;8.80;8.00;;;19.60;99.90;;;;;;4994594;28;20188;-60
2021/07/08 06:46:30;;;;;;;9.73;7.50;;;19.60;99.90;;;;;;4994312;28;20415;-61
2021/07/08 06:48:57;;;;;;;9.80;8.80;;;19.60;99.90;;;;;;4990032;28;20176;-60
2021/07/08 06:51:23;;;;;;;11.40;10.20;;;19.70;99.90;;;;;;4975734;28;20424;-60
2021/07/08 06:53:50;;;;;;;10.90;9.90;;;19.70;99.90;;;;;;4983218;28;20425;-60
2021/07/08 06:56:18;;;;;;;10.23;9.20;;;19.80;99.90;;;;;;4994827;28;20278;-60
2021/07/08 06:58:44;;;;;;;13.40;12.30;;;19.80;99.90;;;;;;4994763;28;20395;-60
2021/07/08 07:01:10;;;;;;;13.03;11.63;;;19.90;99.90;;;;;;4995028;28;20435;-60
2021/07/08 07:03:36;;;;;;;11.80;10.60;;;20.00;99.90;;;;;;4994580;28;20415;-60
2021/07/08 07:06:02;;;;;;;12.53;11.53;;;20.00;99.90;;;;;;4994924;28;20429;-60
2021/07/08 07:08:28;;;;;;;9.30;8.40;;;20.10;99.90;;;;;;4984472;28;20168;-61
2021/07/08 07:10:54;;;;;;;10.40;9.33;;;20.20;99.90;;;;;;4995018;28;20407;-60
2021/07/08 07:13:19;;;;;;;9.00;8.20;;;20.20;99.90;;;;;;4993620;28;20237;-60
2021/07/08 07:15:45;;;;;;;9.30;8.43;;;20.30;99.90;;;;;;4994367;28;20545;-60
2021/07/08 07:18:11;;;;;;;12.07;10.97;;;20.50;99.90;;;;;;4994375;28;20215;-60
2021/07/08 07:20:37;;;;;;;8.90;8.20;;;20.50;99.90;;;;;;4996640;28;20184;-60
2021/07/08 07:23:02;;;;;;;8.33;7.07;;;20.60;99.90;;;;;;4994830;28;20187;-60
2021/07/08 07:25:29;;;;;;;7.17;6.47;;;20.80;99.90;;;;;;4992669;28;20176;-60
2021/07/08 07:27:55;;;;;;;6.83;6.27;;;20.90;99.90;;;;;;4993444;28;20270;-61
2021/07/08 07:30:24;;;;;;;9.20;8.30;;;21.10;99.90;;;;;;4994733;28;20407;-60
2021/07/08 07:32:51;;;;;;;10.13;6.80;;;21.20;99.90;;;;;;4993680;28;20419;-60
2021/07/08 07:35:17;;;;;;;7.57;6.80;;;21.40;99.90;;;;;;4994218;28;20455;-60
2021/07/08 07:37:44;;;;;;;8.53;7.90;;;21.60;99.80;;;;;;4993807;28;20953;-60
2021/07/08 07:40:11;;;;;;;8.13;7.57;;;21.70;99.10;;;;;;4989675;28;20184;-60
2021/07/08 07:42:37;;;;;;;7.60;6.90;;;21.90;98.10;;;;;;4974526;28;20424;-60
2021/07/08 07:45:06;;;;;;;7.73;7.03;;;22.00;97.50;;;;;;4974976;28;20415;-60
2021/07/08 07:47:31;;;;;;;6.93;6.53;;;22.10;97.30;;;;;;4974402;28;20415;-61
2021/07/08 07:49:58;;;;;;;5.60;5.20;;;22.30;97.00;;;;;;4974950;28;20502;-60
2021/07/08 07:52:25;;;;;;;5.60;5.10;;;22.40;96.60;;;;;;4979802;28;20179;-61
2021/07/08 07:54:51;;;;;;;5.23;4.83;;;22.50;93.90;;;;;;4993934;28;20914;-60
2021/07/08 07:57:17;;;;;;;6.87;6.20;;;22.60;93.70;;;;;;4991435;28;20469;-60
2021/07/08 07:59:43;;;;;;;6.13;5.60;;;22.70;94.40;;;;;;4993486;28;20419;-60
2021/07/08 08:02:13;;;;;;;7.20;6.53;;;22.90;93.60;;;;;;4993791;28;20410;-60
2021/07/08 08:04:54;;;;;;;7.83;7.10;;;23.00;93.10;;;;;;4993797;28;20168;-60
2021/07/08 08:10:06;;;;;;;6.20;5.60;;;23.30;93.30;;;;;;4993990;28;20395;-60
2021/07/08 08:12:32;;;;;;;8.17;7.40;;;23.40;93.80;;;;;;4993332;28;20438;-60
2021/07/08 08:14:58;;;;;;;6.90;6.40;;;23.50;93.40;;;;;;4993948;28;20418;-60
2021/07/08 08:17:24;;;;;;;8.20;7.40;;;23.50;93.90;;;;;;4993779;28;20466;-60
2021/07/08 08:19:50;;;;;;;7.77;7.17;;;23.50;93.70;;;;;;4992967;28;20244;-60
2021/07/08 08:22:17;;;;;;;6.90;6.40;;;23.60;92.20;;;;;;4993799;28;20569;-60
2021/07/08 08:24:44;;;;;;;8.60;7.83;;;23.70;92.70;;;;;;4993130;28;20613;-60
2021/07/08 08:27:09;;;;;;;7.87;7.20;;;23.90;92.00;;;;;;4993814;28;20427;-60
2021/07/08 08:29:35;;;;;;;6.67;5.93;;;24.10;91.50;;;;;;4993021;28;20549;-60
2021/07/08 08:32:01;;;;;;;5.73;5.23;;;24.20;91.90;;;;;;4992887;28;20180;-60
2021/07/08 08:34:27;;;;;;;6.83;6.33;;;24.40;90.80;;;;;;4993364;28;20251;-60
2021/07/08 08:36:52;;;;;;;6.00;5.60;;;24.50;89.80;;;;;;4993533;28;20286;-60
2021/07/08 08:39:18;;;;;;;6.97;6.50;;;24.60;90.20;;;;;;4993214;28;20182;-61
2021/07/08 08:41:44;;;;;;;5.13;4.83;;;24.70;89.60;;;;;;4992891;28;20182;-61
2021/07/08 08:44:09;;;;;;;6.07;5.67;;;24.90;90.10;;;;;;4976204;28;20184;-61
2021/07/08 08:46:35;;;;;;;5.17;4.77;;;25.00;90.30;;;;;;4992933;28;20179;-61
2021/07/08 08:49:06;;;;;;;6.40;5.97;;;25.10;90.20;;;;;;4993688;28;20176;-60
2021/07/08 08:51:32;;;;;;;7.93;7.40;;;25.20;86.60;;;;;;4992738;28;20418;-60
2021/07/08 08:53:58;;;;;;;7.37;6.70;;;25.40;89.00;;;;;;4993360;28;20429;-60
2021/07/08 08:56:24;;;;;;;5.67;5.00;;;25.50;87.70;;;;;;4992824;28;20474;-60
2021/07/08 08:58:50;;;;;;;7.47;6.90;;;25.60;86.60;;;;;;4992637;28;20418;-60
2021/07/08 09:01:18;;;;;;;4.90;4.60;;;25.80;85.50;;;;;;4992948;28;20426;-61
2021/07/08 09:03:45;;;;;;;4.50;4.20;;;25.90;85.30;;;;;;4992690;28;20179;-61
2021/07/08 09:06:15;;;;;;;7.50;6.97;;;26.00;82.70;;;;;;4993165;28;20438;-59
2021/07/08 09:08:44;;;;;;;5.60;5.20;;;26.10;81.70;;;;;;4992313;28;20413;-60
2021/07/08 09:11:22;;;;;;;5.07;4.77;;;26.10;80.90;;;;;;4993100;28;20415;-60
2021/07/08 09:14:03;;;;;;;6.03;5.43;;;26.10;80.10;;;;;;4975374;28;20409;-61
2021/07/08 09:16:30;;;;;;;5.83;5.33;;;26.10;79.70;;;;;;4993115;28;20850;-61
2021/07/08 09:18:56;;;;;;;8.40;5.70;;;26.20;81.00;;;;;;4993043;28;20774;-61
2021/07/08 09:21:23;;;;;;;4.73;4.33;;;26.30;79.40;;;;;;4993043;28;20410;-61
2021/07/08 09:24:22;;;;;;;4.97;4.57;;;26.40;75.70;;;;;;4992532;28;20184;-61
2021/07/08 09:26:59;;;;;;;5.53;5.03;;;26.50;74.40;;;;;;4970161;28;20439;-61
2021/07/08 09:29:49;;;;;;;5.50;5.10;;;26.70;77.50;;;;;;4993077;28;20415;-61
2021/07/08 09:32:23;;;;;;;4.50;4.20;;;26.90;79.40;;;;;;4987468;28;20423;-61
2021/07/08 09:34:50;;;;;;;4.80;4.50;;;27.10;80.20;;;;;;4992491;28;20808;-61
2021/07/08 09:37:22;;;;;;;4.60;4.30;;;27.10;77.80;;;;;;4992864;28;20459;-61
2021/07/08 09:39:53;;;;;;;4.60;4.20;;;27.00;75.50;;;;;;4992369;28;20891;-60
2021/07/08 09:42:45;;;;;;;6.77;6.27;;;26.90;77.20;;;;;;4994338;28;20506;-60
2021/07/08 09:45:16;;;;;;;4.67;4.30;;;26.70;77.10;;;;;;4996730;28;20945;-60
2021/07/08 09:47:45;;;;;;;4.57;4.23;;;26.50;77.80;;;;;;4996273;28;20469;-60
2021/07/08 09:50:29;;;;;;;4.97;4.67;;;26.20;78.40;;;;;;4996655;28;20410;-60
2021/07/08 09:53:06;;;;;;;5.40;5.00;;;26.00;77.60;;;;;;4995804;28;20795;-61
2021/07/08 09:58:49;;;;;;;4.93;4.63;;;25.50;79.20;;;;;;4954711;29;20444;-60
2021/07/08 10:01:15;;;;;;;5.80;5.50;;;25.30;80.00;;;;;;4955363;29;20967;-60
2021/07/08 10:03:42;;;;;;;4.43;4.13;;;25.20;84.20;;;;;;4977423;28;20423;-60
2021/07/08 10:06:09;;;;;;;5.00;4.70;;;25.10;85.50;;;;;;4996474;28;20210;-60
2021/07/08 10:08:40;;;;;;;4.93;4.53;;;24.90;84.20;;;;;;4995646;28;20414;-61
2021/07/08 10:11:06;;;;;;;6.23;4.90;;;24.90;87.60;;;;;;4995864;28;20985;-60
2021/07/08 10:13:33;;;;;;;6.10;5.60;;;24.90;86.50;;;;;;4996196;28;20410;-60
2021/07/08 10:16:02;;;;;;;5.57;5.17;;;24.70;85.30;;;;;;4996001;28;20411;-60
2021/07/08 10:18:32;;;;;;;5.03;4.63;;;24.70;86.10;;;;;;4996062;28;20415;-60
2021/07/08 10:20:59;;;;;;;4.77;4.50;;;24.70;88.70;;;;;;4995870;28;20404;-60
2021/07/08 10:23:26;;;;;;;5.40;5.10;;;24.70;87.70;;;;;;4996006;28;20415;-60
2021/07/08 10:25:52;;;;;;;5.10;4.90;;;24.70;88.80;;;;;;4995314;28;20407;-60
2021/07/08 10:28:19;;;;;;;6.77;6.37;;;24.70;89.30;;;;;;4996242;28;20442;-61
2021/07/08 10:30:48;;;;;;;4.73;4.43;;;24.70;90.60;;;;;;4995258;28;20403;-61
2021/07/08 10:33:19;;;;;;;4.93;4.50;;;24.70;90.30;;;;;;4995833;28;20395;-61
2021/07/08 10:35:51;;;;;;;5.33;4.80;;;24.70;91.60;;;;;;4995149;28;20395;-60
2021/07/08 10:38:35;;;;;;;4.70;4.40;;;24.70;90.90;;;;;;4995657;28;20458;-60
2021/07/08 10:41:21;;;;;;;6.37;5.90;;;24.70;91.20;;;;;;4995797;28;20780;-61
2021/07/08 10:43:47;;;;;;;6.60;6.10;;;24.80;90.40;;;;;;4974423;28;20418;-60
2021/07/08 10:46:15;;;;;;;5.33;4.80;;;24.90;90.70;;;;;;4995302;28;20461;-61
2021/07/08 10:48:43;;;;;;;5.50;5.10;;;25.00;91.20;;;;;;4994918;28;20407;-60
2021/07/08 10:51:35;;;;;;;4.33;3.93;;;25.10;90.90;;;;;;4978202;28;20414;-61
2021/07/08 10:54:28;;;;;;;5.07;4.77;;;25.20;91.30;;;;;;4994805;28;20879;-61
2021/07/08 10:56:56;;;;;;;5.13;4.73;;;25.30;87.40;;;;;;4994657;28;20471;-61
2021/07/08 10:59:22;;;;;;;4.80;4.47;;;25.40;85.80;;;;;;4995144;28;20438;-61
2021/07/08 11:01:50;;;;;;;4.47;4.17;;;25.40;87.90;;;;;;4994401;28;20407;-60
2021/07/08 11:04:41;;;;;;;5.00;4.60;;;25.50;87.30;;;;;;4994025;28;20911;-61
2021/07/08 11:07:19;;;;;;;6.83;6.33;;;25.60;89.00;;;;;;4995411;28;20406;-61
2021/07/08 11:10:03;;;;;;;5.77;5.40;;;25.80;88.00;;;;;;4994350;28;20403;-61
2021/07/08 11:12:34;;;;;;;4.90;4.60;;;26.00;87.60;;;;;;4995385;28;20484;-60
2021/07/08 11:15:02;;;;;;;8.83;8.00;;;26.10;83.80;;;;;;4977182;28;20765;-61
2021/07/08 11:17:38;;;;;;;5.23;5.00;;;26.10;84.10;;;;;;4995155;28;20477;-61
2021/07/08 11:20:33;;;;;;;5.90;5.57;;;26.20;86.10;;;;;;4994712;28;20541;-62
2021/07/08 11:23:37;;;;;;;5.20;4.90;;;26.20;86.90;;;;;;4994332;28;20725;-61
2021/07/08 11:26:03;;;;;;;4.27;4.07;;;26.10;83.60;;;;;;4994864;28;20414;-61
2021/07/08 11:28:32;;;;;;;4.27;4.00;;;26.00;81.80;;;;;;4994860;28;20469;-61
2021/07/08 11:31:06;;;;;;;4.80;4.50;;;25.80;82.60;;;;;;4994152;28;20652;-61
2021/07/08 11:33:36;;;;;;;5.10;4.70;;;25.70;82.80;;;;;;4995068;28;20407;-60
2021/07/08 11:36:11;;;;;;;5.30;5.00;;;25.50;81.90;;;;;;4992854;28;20395;-61
2021/07/08 11:38:41;;;;;;;5.37;4.87;;;25.30;86.00;;;;;;4994726;28;20464;-61
2021/07/08 11:41:09;;;;;;;5.43;5.00;;;25.10;85.50;;;;;;4994771;28;20407;-60
2021/07/08 11:43:37;;;;;;;5.10;4.80;;;25.10;87.50;;;;;;4994534;28;20407;-60
2021/07/08 11:46:08;;;;;;;4.53;4.13;;;25.10;87.20;;;;;;4993895;28;20764;-61
2021/07/08 11:48:37;;;;;;;5.00;4.70;;;25.00;85.80;;;;;;4994399;28;20431;-61
2021/07/08 11:51:12;;;;;;;6.80;4.80;;;24.90;87.50;;;;;;4992910;28;20518;-60
2021/07/08 11:53:39;;;;;;;4.57;4.27;;;24.90;85.60;;;;;;4994446;28;20428;-61
2021/07/08 11:56:05;;;;;;;4.50;4.10;;;24.90;85.20;;;;;;4993935;28;20458;-61
2021/07/08 11:58:33;;;;;;;4.93;4.47;;;24.90;87.30;;;;;;4994331;28;20420;-61
2021/07/08 12:01:07;;;;;;;4.43;4.03;;;24.80;89.10;;;;;;4993670;28;20863;-61
2021/07/08 12:03:40;;;;;;;5.00;4.57;;;24.70;89.30;;;;;;4994145;28;20899;-61
2021/07/08 12:06:13;;;;;;;5.43;4.20;;;24.70;89.50;;;;;;4993221;28;20518;-61
2021/07/08 12:08:46;;;;;;;5.43;5.03;;;24.80;89.90;;;;;;4992920;28;20404;-61
2021/07/08 12:11:19;;;;;;;5.90;4.60;;;24.90;89.90;;;;;;4994048;28;20871;-61
2021/07/08 12:13:50;;;;;;;4.37;4.13;;;24.70;87.50;;;;;;4993119;28;20971;-61
2021/07/08 12:16:19;;;;;;;5.63;5.13;;;24.70;89.00;;;;;;4994011;28;20490;-61
2021/07/08 12:18:48;;;;;;;5.60;5.10;;;24.70;90.10;;;;;;4993308;28;20422;-61
2021/07/08 12:21:26;;;;;;;4.43;4.07;;;24.90;90.20;;;;;;4993669;28;20437;-61
2021/07/08 12:23:54;;;;;;;4.73;4.43;;;24.80;90.60;;;;;;4993288;28;20395;-61
2021/07/08 12:26:32;;;;;;;5.20;4.80;;;24.60;88.70;;;;;;4993418;28;20429;-60
2021/07/08 12:29:18;;;;;;;6.63;6.07;;;24.50;88.30;;;;;;4993205;28;20403;-61
2021/07/08 12:32:06;;;;;;;4.70;4.40;;;24.40;89.30;;;;;;4993052;28;20757;-61
2021/07/08 12:34:45;;;;;;;4.40;4.20;;;24.40;89.40;;;;;;4993541;28;20422;-60
2021/07/08 12:37:39;;;;;;;4.63;4.30;;;24.40;87.70;;;;;;4976113;28;20447;-60
2021/07/08 12:40:14;;;;;;;5.30;4.90;;;24.30;88.70;;;;;;4993024;28;20498;-60
2021/07/08 12:42:45;;;;;;;4.97;4.67;;;24.30;88.90;;;;;;4993436;28;20419;-61
2021/07/08 12:45:13;;;;;;;5.97;5.40;;;24.40;88.70;;;;;;4993093;28;20502;-61
2021/07/08 12:47:48;;;;;;;4.83;4.43;;;24.30;90.10;;;;;;4993448;28;20834;-61
2021/07/08 12:50:15;;;;;;;4.97;4.67;;;24.30;90.50;;;;;;4993546;28;20489;-61
2021/07/08 12:52:43;;;;;;;5.10;4.80;;;24.40;90.30;;;;;;4993355;28;20915;-59
2021/07/08 12:55:29;;;;;;;5.03;4.73;;;24.40;89.00;;;;;;4993015;28;20407;-60
2021/07/08 12:58:09;;;;;;;4.80;4.40;;;24.60;90.70;;;;;;4992004;28;20475;-61
2021/07/08 13:00:36;;;;;;;5.33;4.93;;;24.70;90.60;;;;;;4993378;28;20749;-61
2021/07/08 13:03:03;;;;;;;5.60;5.20;;;24.70;90.90;;;;;;4975209;28;20941;-61
2021/07/08 13:06:05;;;;;;;4.77;4.37;;;24.70;91.10;;;;;;4993320;28;20451;-61